sensor_id;sensor_type;location;lat;lon;timestamp;P1;durP1;ratioP1;P2;durP2;ratioP2
30948;SDS011;17637;51.984;21.208;2024-03-25T00:00:28;28.38;;;18.55;;
30948;SDS011;17637;51.984;21.208;2024-03-25T00:02:59;26.15;;;18.50;;
30948;SDS011;17637;51.984;21.208;2024-03-25T00:05:30;25.08;;;18.73;;
30948;SDS011;17637;51.984;21.208;2024-03-25T00:08:02;26.90;;;18.98;;
30948;SDS011;17637;51.984;21.208;2024-03-25T00:10:33;22.95;;;15.85;;
30948;SDS011;17637;51.984;21.208;2024-03-25T00:13:04;22.85;;;16.25;;
30948;SDS011;17637;51.984;21.208;2024-03-25T00:15:34;25.23;;;16.02;;
30948;SDS011;17637;51.984;21.208;2024-03-25T00:18:07;21.30;;;15.55;;
30948;SDS011;17637;51.984;21.208;2024-03-25T00:20:38;24.45;;;17.15;;
30948;SDS011;17637;51.984;21.208;2024-03-25T00:23:08;24.05;;;17.33;;
30948;SDS011;17637;51.984;21.208;2024-03-25T00:25:39;25.02;;;17.80;;
30948;SDS011;17637;51.984;21.208;2024-03-25T00:28:09;20.83;;;16.48;;
30948;SDS011;17637;51.984;21.208;2024-03-25T00:30:40;24.83;;;18.38;;
30948;SDS011;17637;51.984;21.208;2024-03-25T00:33:10;24.63;;;17.00;;
30948;SDS011;17637;51.984;21.208;2024-03-25T00:35:41;25.50;;;19.30;;
30948;SDS011;17637;51.984;21.208;2024-03-25T00:38:12;27.42;;;16.92;;
30948;SDS011;17637;51.984;21.208;2024-03-25T00:40:42;26.63;;;18.95;;
30948;SDS011;17637;51.984;21.208;2024-03-25T00:43:13;22.55;;;17.25;;
30948;SDS011;17637;51.984;21.208;2024-03-25T00:45:45;24.55;;;18.15;;
30948;SDS011;17637;51.984;21.208;2024-03-25T00:48:15;24.98;;;18.35;;
30948;SDS011;17637;51.984;21.208;2024-03-25T00:50:46;20.77;;;14.77;;
30948;SDS011;17637;51.984;21.208;2024-03-25T00:53:16;22.00;;;16.23;;
30948;SDS011;17637;51.984;21.208;2024-03-25T00:55:48;22.60;;;16.10;;
30948;SDS011;17637;51.984;21.208;2024-03-25T00:58:18;23.27;;;16.45;;
30948;SDS011;17637;51.984;21.208;2024-03-25T01:00:50;24.55;;;17.50;;
30948;SDS011;17637;51.984;21.208;2024-03-25T01:03:20;25.95;;;18.00;;
30948;SDS011;17637;51.984;21.208;2024-03-25T01:05:51;20.55;;;16.08;;
30948;SDS011;17637;51.984;21.208;2024-03-25T01:08:21;23.88;;;16.65;;
30948;SDS011;17637;51.984;21.208;2024-03-25T01:10:52;25.95;;;17.33;;
30948;SDS011;17637;51.984;21.208;2024-03-25T01:13:22;24.95;;;16.77;;
30948;SDS011;17637;51.984;21.208;2024-03-25T01:15:53;22.00;;;16.17;;
30948;SDS011;17637;51.984;21.208;2024-03-25T01:18:23;21.42;;;15.20;;
30948;SDS011;17637;51.984;21.208;2024-03-25T01:20:54;23.30;;;18.02;;
30948;SDS011;17637;51.984;21.208;2024-03-25T01:23:25;21.75;;;15.32;;
30948;SDS011;17637;51.984;21.208;2024-03-25T01:25:55;24.30;;;16.88;;
30948;SDS011;17637;51.984;21.208;2024-03-25T01:28:26;23.00;;;17.02;;
30948;SDS011;17637;51.984;21.208;2024-03-25T01:30:57;25.83;;;18.42;;
30948;SDS011;17637;51.984;21.208;2024-03-25T01:33:28;25.85;;;17.60;;
30948;SDS011;17637;51.984;21.208;2024-03-25T01:35:58;24.88;;;18.02;;
30948;SDS011;17637;51.984;21.208;2024-03-25T01:38:29;29.58;;;20.42;;
30948;SDS011;17637;51.984;21.208;2024-03-25T01:41:09;23.70;;;17.70;;
30948;SDS011;17637;51.984;21.208;2024-03-25T01:43:40;26.75;;;18.10;;
30948;SDS011;17637;51.984;21.208;2024-03-25T01:46:10;23.85;;;17.42;;
30948;SDS011;17637;51.984;21.208;2024-03-25T01:48:41;21.90;;;15.70;;
30948;SDS011;17637;51.984;21.208;2024-03-25T01:51:13;23.33;;;16.88;;
30948;SDS011;17637;51.984;21.208;2024-03-25T01:53:44;24.70;;;18.70;;
30948;SDS011;17637;51.984;21.208;2024-03-25T01:56:15;27.48;;;18.88;;
30948;SDS011;17637;51.984;21.208;2024-03-25T01:58:46;27.23;;;17.77;;
30948;SDS011;17637;51.984;21.208;2024-03-25T02:01:17;26.65;;;19.33;;
30948;SDS011;17637;51.984;21.208;2024-03-25T02:03:48;24.83;;;17.48;;
30948;SDS011;17637;51.984;21.208;2024-03-25T02:06:19;26.83;;;18.35;;
30948;SDS011;17637;51.984;21.208;2024-03-25T02:08:50;24.45;;;17.83;;
30948;SDS011;17637;51.984;21.208;2024-03-25T02:11:20;26.48;;;18.70;;
30948;SDS011;17637;51.984;21.208;2024-03-25T02:13:51;27.63;;;18.45;;
30948;SDS011;17637;51.984;21.208;2024-03-25T02:16:21;28.65;;;20.92;;
30948;SDS011;17637;51.984;21.208;2024-03-25T02:18:52;24.42;;;18.55;;
30948;SDS011;17637;51.984;21.208;2024-03-25T02:21:22;27.55;;;19.08;;
30948;SDS011;17637;51.984;21.208;2024-03-25T02:23:53;24.33;;;18.10;;
30948;SDS011;17637;51.984;21.208;2024-03-25T02:26:27;24.42;;;18.17;;
30948;SDS011;17637;51.984;21.208;2024-03-25T02:28:58;24.08;;;17.42;;
30948;SDS011;17637;51.984;21.208;2024-03-25T02:31:28;26.45;;;18.35;;
30948;SDS011;17637;51.984;21.208;2024-03-25T02:33:59;44.30;;;26.75;;
30948;SDS011;17637;51.984;21.208;2024-03-25T02:36:29;49.90;;;29.27;;
30948;SDS011;17637;51.984;21.208;2024-03-25T02:39:00;41.67;;;26.63;;
30948;SDS011;17637;51.984;21.208;2024-03-25T02:41:30;36.65;;;23.52;;
30948;SDS011;17637;51.984;21.208;2024-03-25T02:44:01;37.45;;;25.23;;
30948;SDS011;17637;51.984;21.208;2024-03-25T02:46:32;41.58;;;29.23;;
30948;SDS011;17637;51.984;21.208;2024-03-25T02:49:04;33.10;;;23.70;;
30948;SDS011;17637;51.984;21.208;2024-03-25T02:51:34;35.97;;;25.42;;
30948;SDS011;17637;51.984;21.208;2024-03-25T02:54:05;35.70;;;23.52;;
30948;SDS011;17637;51.984;21.208;2024-03-25T02:56:35;30.23;;;22.02;;
30948;SDS011;17637;51.984;21.208;2024-03-25T02:59:06;28.88;;;20.30;;
30948;SDS011;17637;51.984;21.208;2024-03-25T03:01:37;29.35;;;21.00;;
30948;SDS011;17637;51.984;21.208;2024-03-25T03:04:07;27.65;;;20.48;;
30948;SDS011;17637;51.984;21.208;2024-03-25T03:06:38;25.45;;;17.95;;
30948;SDS011;17637;51.984;21.208;2024-03-25T03:09:08;28.50;;;20.63;;
30948;SDS011;17637;51.984;21.208;2024-03-25T03:11:39;29.42;;;19.75;;
30948;SDS011;17637;51.984;21.208;2024-03-25T03:14:09;25.75;;;19.25;;
30948;SDS011;17637;51.984;21.208;2024-03-25T03:16:40;26.30;;;17.98;;
30948;SDS011;17637;51.984;21.208;2024-03-25T03:19:10;28.83;;;20.15;;
30948;SDS011;17637;51.984;21.208;2024-03-25T03:21:41;27.00;;;19.20;;
30948;SDS011;17637;51.984;21.208;2024-03-25T03:24:12;22.92;;;17.02;;
30948;SDS011;17637;51.984;21.208;2024-03-25T03:26:43;27.20;;;18.08;;
30948;SDS011;17637;51.984;21.208;2024-03-25T03:29:13;29.15;;;19.45;;
30948;SDS011;17637;51.984;21.208;2024-03-25T03:31:44;27.10;;;17.45;;
30948;SDS011;17637;51.984;21.208;2024-03-25T03:34:14;25.42;;;18.20;;
30948;SDS011;17637;51.984;21.208;2024-03-25T03:36:45;25.70;;;17.00;;
30948;SDS011;17637;51.984;21.208;2024-03-25T03:39:15;29.15;;;20.30;;
30948;SDS011;17637;51.984;21.208;2024-03-25T03:41:46;29.25;;;19.27;;
30948;SDS011;17637;51.984;21.208;2024-03-25T03:44:16;23.42;;;16.38;;
30948;SDS011;17637;51.984;21.208;2024-03-25T03:46:47;30.70;;;20.77;;
30948;SDS011;17637;51.984;21.208;2024-03-25T03:49:18;27.08;;;19.17;;
30948;SDS011;17637;51.984;21.208;2024-03-25T03:51:48;26.42;;;18.17;;
30948;SDS011;17637;51.984;21.208;2024-03-25T03:54:19;27.98;;;18.20;;
30948;SDS011;17637;51.984;21.208;2024-03-25T03:56:49;27.20;;;19.75;;
30948;SDS011;17637;51.984;21.208;2024-03-25T03:59:20;28.00;;;19.20;;
30948;SDS011;17637;51.984;21.208;2024-03-25T04:01:50;25.13;;;16.48;;
30948;SDS011;17637;51.984;21.208;2024-03-25T04:04:21;23.48;;;16.58;;
30948;SDS011;17637;51.984;21.208;2024-03-25T04:06:51;23.67;;;17.13;;
30948;SDS011;17637;51.984;21.208;2024-03-25T04:09:22;26.27;;;18.75;;
30948;SDS011;17637;51.984;21.208;2024-03-25T04:11:54;26.77;;;18.17;;
30948;SDS011;17637;51.984;21.208;2024-03-25T04:14:24;27.25;;;18.50;;
30948;SDS011;17637;51.984;21.208;2024-03-25T04:16:55;30.40;;;20.30;;
30948;SDS011;17637;51.984;21.208;2024-03-25T04:19:25;24.15;;;18.33;;
30948;SDS011;17637;51.984;21.208;2024-03-25T04:21:57;26.95;;;17.95;;
30948;SDS011;17637;51.984;21.208;2024-03-25T04:24:28;26.05;;;17.52;;
30948;SDS011;17637;51.984;21.208;2024-03-25T04:26:58;25.40;;;16.42;;
30948;SDS011;17637;51.984;21.208;2024-03-25T04:29:29;27.90;;;18.73;;
30948;SDS011;17637;51.984;21.208;2024-03-25T04:32:00;25.95;;;19.45;;
30948;SDS011;17637;51.984;21.208;2024-03-25T04:34:30;28.70;;;20.00;;
30948;SDS011;17637;51.984;21.208;2024-03-25T04:37:01;26.20;;;17.48;;
30948;SDS011;17637;51.984;21.208;2024-03-25T04:39:31;28.73;;;19.40;;
30948;SDS011;17637;51.984;21.208;2024-03-25T04:42:02;24.65;;;18.23;;
30948;SDS011;17637;51.984;21.208;2024-03-25T04:44:33;28.98;;;20.08;;
30948;SDS011;17637;51.984;21.208;2024-03-25T04:47:04;24.67;;;17.50;;
30948;SDS011;17637;51.984;21.208;2024-03-25T04:49:34;26.58;;;18.35;;
30948;SDS011;17637;51.984;21.208;2024-03-25T04:52:05;21.95;;;15.15;;
30948;SDS011;17637;51.984;21.208;2024-03-25T04:54:35;28.73;;;19.90;;
30948;SDS011;17637;51.984;21.208;2024-03-25T04:57:06;24.20;;;16.25;;
30948;SDS011;17637;51.984;21.208;2024-03-25T04:59:36;28.63;;;20.10;;
30948;SDS011;17637;51.984;21.208;2024-03-25T05:02:07;25.40;;;17.45;;
30948;SDS011;17637;51.984;21.208;2024-03-25T05:04:38;22.65;;;15.45;;
30948;SDS011;17637;51.984;21.208;2024-03-25T05:07:08;25.50;;;16.90;;
30948;SDS011;17637;51.984;21.208;2024-03-25T05:09:40;26.50;;;18.48;;
30948;SDS011;17637;51.984;21.208;2024-03-25T05:12:11;23.23;;;16.73;;
30948;SDS011;17637;51.984;21.208;2024-03-25T05:14:41;23.30;;;15.73;;
30948;SDS011;17637;51.984;21.208;2024-03-25T05:17:12;25.20;;;17.15;;
30948;SDS011;17637;51.984;21.208;2024-03-25T05:19:43;29.17;;;18.60;;
30948;SDS011;17637;51.984;21.208;2024-03-25T05:22:13;22.65;;;16.13;;
30948;SDS011;17637;51.984;21.208;2024-03-25T05:24:44;27.80;;;17.15;;
30948;SDS011;17637;51.984;21.208;2024-03-25T05:27:15;28.05;;;18.30;;
30948;SDS011;17637;51.984;21.208;2024-03-25T05:29:45;24.80;;;18.70;;
30948;SDS011;17637;51.984;21.208;2024-03-25T05:32:16;25.60;;;18.15;;
30948;SDS011;17637;51.984;21.208;2024-03-25T05:34:52;22.40;;;15.93;;
30948;SDS011;17637;51.984;21.208;2024-03-25T05:37:23;26.65;;;17.15;;
30948;SDS011;17637;51.984;21.208;2024-03-25T05:39:53;26.42;;;18.13;;
30948;SDS011;17637;51.984;21.208;2024-03-25T05:42:24;28.15;;;19.17;;
30948;SDS011;17637;51.984;21.208;2024-03-25T05:44:55;25.77;;;16.95;;
30948;SDS011;17637;51.984;21.208;2024-03-25T05:47:25;27.50;;;18.67;;
30948;SDS011;17637;51.984;21.208;2024-03-25T05:49:56;25.88;;;16.85;;
30948;SDS011;17637;51.984;21.208;2024-03-25T05:52:28;26.13;;;17.50;;
30948;SDS011;17637;51.984;21.208;2024-03-25T05:54:58;27.95;;;19.27;;
30948;SDS011;17637;51.984;21.208;2024-03-25T05:57:29;27.55;;;18.48;;
30948;SDS011;17637;51.984;21.208;2024-03-25T05:59:59;25.38;;;17.30;;
30948;SDS011;17637;51.984;21.208;2024-03-25T06:02:30;25.65;;;17.67;;
30948;SDS011;17637;51.984;21.208;2024-03-25T06:05:00;28.70;;;18.63;;
30948;SDS011;17637;51.984;21.208;2024-03-25T06:07:31;26.67;;;17.90;;
30948;SDS011;17637;51.984;21.208;2024-03-25T06:10:01;24.17;;;16.05;;
30948;SDS011;17637;51.984;21.208;2024-03-25T06:12:32;26.30;;;17.80;;
30948;SDS011;17637;51.984;21.208;2024-03-25T06:15:02;30.95;;;20.17;;
30948;SDS011;17637;51.984;21.208;2024-03-25T06:17:33;26.38;;;17.80;;
30948;SDS011;17637;51.984;21.208;2024-03-25T06:20:03;28.70;;;18.08;;
30948;SDS011;17637;51.984;21.208;2024-03-25T06:22:34;26.05;;;18.05;;
30948;SDS011;17637;51.984;21.208;2024-03-25T06:25:05;29.95;;;18.88;;
30948;SDS011;17637;51.984;21.208;2024-03-25T06:27:35;33.05;;;20.75;;
30948;SDS011;17637;51.984;21.208;2024-03-25T06:30:06;26.73;;;19.73;;
30948;SDS011;17637;51.984;21.208;2024-03-25T06:32:56;25.33;;;17.33;;
30948;SDS011;17637;51.984;21.208;2024-03-25T06:35:45;23.77;;;16.17;;
30948;SDS011;17637;51.984;21.208;2024-03-25T06:38:15;24.33;;;16.77;;
30948;SDS011;17637;51.984;21.208;2024-03-25T06:40:46;20.88;;;14.55;;
30948;SDS011;17637;51.984;21.208;2024-03-25T06:43:16;24.35;;;15.18;;
30948;SDS011;17637;51.984;21.208;2024-03-25T06:45:49;23.23;;;16.08;;
30948;SDS011;17637;51.984;21.208;2024-03-25T06:48:19;23.23;;;15.25;;
30948;SDS011;17637;51.984;21.208;2024-03-25T06:50:53;20.00;;;13.85;;
30948;SDS011;17637;51.984;21.208;2024-03-25T06:53:25;19.13;;;13.25;;
30948;SDS011;17637;51.984;21.208;2024-03-25T06:55:56;18.27;;;12.27;;
30948;SDS011;17637;51.984;21.208;2024-03-25T06:58:27;16.80;;;11.95;;
30948;SDS011;17637;51.984;21.208;2024-03-25T07:01:03;20.38;;;11.98;;
30948;SDS011;17637;51.984;21.208;2024-03-25T07:03:34;19.88;;;11.20;;
30948;SDS011;17637;51.984;21.208;2024-03-25T07:06:05;16.70;;;11.88;;
30948;SDS011;17637;51.984;21.208;2024-03-25T07:08:35;16.35;;;10.68;;
30948;SDS011;17637;51.984;21.208;2024-03-25T07:11:06;17.65;;;11.68;;
30948;SDS011;17637;51.984;21.208;2024-03-25T07:13:36;15.95;;;11.48;;
30948;SDS011;17637;51.984;21.208;2024-03-25T07:16:07;14.48;;;10.43;;
30948;SDS011;17637;51.984;21.208;2024-03-25T07:18:38;17.92;;;11.57;;
30948;SDS011;17637;51.984;21.208;2024-03-25T07:21:08;19.23;;;12.48;;
30948;SDS011;17637;51.984;21.208;2024-03-25T07:23:39;16.63;;;11.55;;
30948;SDS011;17637;51.984;21.208;2024-03-25T07:26:09;17.67;;;11.98;;
30948;SDS011;17637;51.984;21.208;2024-03-25T07:28:40;16.48;;;10.45;;
30948;SDS011;17637;51.984;21.208;2024-03-25T07:31:11;16.42;;;11.05;;
30948;SDS011;17637;51.984;21.208;2024-03-25T07:33:41;16.65;;;10.93;;
30948;SDS011;17637;51.984;21.208;2024-03-25T07:36:12;15.90;;;10.82;;
30948;SDS011;17637;51.984;21.208;2024-03-25T07:38:42;15.45;;;10.32;;
30948;SDS011;17637;51.984;21.208;2024-03-25T07:41:13;16.38;;;9.95;;
30948;SDS011;17637;51.984;21.208;2024-03-25T07:43:43;14.43;;;9.73;;
30948;SDS011;17637;51.984;21.208;2024-03-25T07:46:14;16.48;;;9.93;;
30948;SDS011;17637;51.984;21.208;2024-03-25T07:48:45;15.13;;;9.63;;
30948;SDS011;17637;51.984;21.208;2024-03-25T07:51:15;15.20;;;9.20;;
30948;SDS011;17637;51.984;21.208;2024-03-25T07:53:46;15.32;;;10.18;;
30948;SDS011;17637;51.984;21.208;2024-03-25T07:56:16;14.23;;;9.00;;
30948;SDS011;17637;51.984;21.208;2024-03-25T07:58:47;12.38;;;8.80;;
30948;SDS011;17637;51.984;21.208;2024-03-25T08:01:17;14.52;;;10.05;;
30948;SDS011;17637;51.984;21.208;2024-03-25T08:03:48;16.58;;;10.32;;
30948;SDS011;17637;51.984;21.208;2024-03-25T08:06:18;16.48;;;10.30;;
30948;SDS011;17637;51.984;21.208;2024-03-25T08:08:51;14.63;;;9.68;;
30948;SDS011;17637;51.984;21.208;2024-03-25T08:11:22;12.68;;;9.35;;
30948;SDS011;17637;51.984;21.208;2024-03-25T08:13:53;11.93;;;9.02;;
30948;SDS011;17637;51.984;21.208;2024-03-25T08:16:24;15.30;;;9.35;;
30948;SDS011;17637;51.984;21.208;2024-03-25T08:18:54;15.75;;;9.57;;
30948;SDS011;17637;51.984;21.208;2024-03-25T08:21:25;15.40;;;9.50;;
30948;SDS011;17637;51.984;21.208;2024-03-25T08:23:55;13.15;;;8.80;;
30948;SDS011;17637;51.984;21.208;2024-03-25T08:26:26;12.75;;;9.38;;
30948;SDS011;17637;51.984;21.208;2024-03-25T08:28:56;15.27;;;9.85;;
30948;SDS011;17637;51.984;21.208;2024-03-25T08:31:27;14.43;;;9.70;;
30948;SDS011;17637;51.984;21.208;2024-03-25T08:33:57;16.08;;;9.85;;
30948;SDS011;17637;51.984;21.208;2024-03-25T08:36:28;12.93;;;9.45;;
30948;SDS011;17637;51.984;21.208;2024-03-25T08:38:58;14.48;;;9.25;;
30948;SDS011;17637;51.984;21.208;2024-03-25T08:41:29;14.18;;;9.10;;
30948;SDS011;17637;51.984;21.208;2024-03-25T08:43:59;12.18;;;8.30;;
30948;SDS011;17637;51.984;21.208;2024-03-25T08:46:30;14.13;;;9.32;;
30948;SDS011;17637;51.984;21.208;2024-03-25T08:49:00;11.93;;;9.13;;
30948;SDS011;17637;51.984;21.208;2024-03-25T08:51:31;12.60;;;8.55;;
30948;SDS011;17637;51.984;21.208;2024-03-25T08:54:01;12.30;;;8.32;;
30948;SDS011;17637;51.984;21.208;2024-03-25T08:56:32;14.27;;;8.82;;
30948;SDS011;17637;51.984;21.208;2024-03-25T08:59:02;13.25;;;8.48;;
30948;SDS011;17637;51.984;21.208;2024-03-25T09:01:33;11.20;;;8.23;;
30948;SDS011;17637;51.984;21.208;2024-03-25T09:04:04;11.25;;;8.30;;
30948;SDS011;17637;51.984;21.208;2024-03-25T09:06:34;11.98;;;8.40;;
30948;SDS011;17637;51.984;21.208;2024-03-25T09:09:05;11.38;;;7.82;;
30948;SDS011;17637;51.984;21.208;2024-03-25T09:11:54;12.68;;;7.80;;
30948;SDS011;17637;51.984;21.208;2024-03-25T09:14:25;12.55;;;7.95;;
30948;SDS011;17637;51.984;21.208;2024-03-25T09:16:56;11.18;;;8.02;;
30948;SDS011;17637;51.984;21.208;2024-03-25T09:19:26;8.90;;;7.18;;
30948;SDS011;17637;51.984;21.208;2024-03-25T09:21:57;9.95;;;7.57;;
30948;SDS011;17637;51.984;21.208;2024-03-25T09:24:27;9.20;;;7.35;;
30948;SDS011;17637;51.984;21.208;2024-03-25T09:26:58;9.95;;;6.32;;
30948;SDS011;17637;51.984;21.208;2024-03-25T09:29:28;9.68;;;6.57;;
30948;SDS011;17637;51.984;21.208;2024-03-25T09:31:59;10.15;;;7.50;;
30948;SDS011;17637;51.984;21.208;2024-03-25T09:34:29;8.82;;;7.13;;
30948;SDS011;17637;51.984;21.208;2024-03-25T09:37:00;9.25;;;6.90;;
30948;SDS011;17637;51.984;21.208;2024-03-25T09:39:30;12.40;;;7.25;;
30948;SDS011;17637;51.984;21.208;2024-03-25T09:42:02;9.05;;;6.72;;
30948;SDS011;17637;51.984;21.208;2024-03-25T09:44:38;10.23;;;7.05;;
30948;SDS011;17637;51.984;21.208;2024-03-25T09:47:08;8.55;;;6.72;;
30948;SDS011;17637;51.984;21.208;2024-03-25T09:49:40;9.82;;;6.57;;
30948;SDS011;17637;51.984;21.208;2024-03-25T09:52:11;8.27;;;5.95;;
30948;SDS011;17637;51.984;21.208;2024-03-25T09:54:41;8.10;;;5.20;;
30948;SDS011;17637;51.984;21.208;2024-03-25T09:57:12;6.80;;;5.43;;
30948;SDS011;17637;51.984;21.208;2024-03-25T09:59:43;11.52;;;6.40;;
30948;SDS011;17637;51.984;21.208;2024-03-25T10:02:13;8.07;;;5.57;;
30948;SDS011;17637;51.984;21.208;2024-03-25T10:04:45;9.88;;;5.80;;
30948;SDS011;17637;51.984;21.208;2024-03-25T10:07:23;8.00;;;5.60;;
30948;SDS011;17637;51.984;21.208;2024-03-25T10:09:54;7.45;;;6.45;;
30948;SDS011;17637;51.984;21.208;2024-03-25T10:12:25;9.90;;;6.47;;
30948;SDS011;17637;51.984;21.208;2024-03-25T10:14:55;10.27;;;7.05;;
30948;SDS011;17637;51.984;21.208;2024-03-25T10:17:27;8.55;;;5.93;;
30948;SDS011;17637;51.984;21.208;2024-03-25T10:19:58;9.55;;;6.95;;
30948;SDS011;17637;51.984;21.208;2024-03-25T10:22:28;10.55;;;7.55;;
30948;SDS011;17637;51.984;21.208;2024-03-25T10:24:59;20.83;;;11.57;;
30948;SDS011;17637;51.984;21.208;2024-03-25T10:27:29;13.38;;;8.02;;
30948;SDS011;17637;51.984;21.208;2024-03-25T10:30:00;9.10;;;6.45;;
30948;SDS011;17637;51.984;21.208;2024-03-25T10:32:30;8.98;;;6.10;;
30948;SDS011;17637;51.984;21.208;2024-03-25T10:35:01;9.85;;;6.47;;
30948;SDS011;17637;51.984;21.208;2024-03-25T10:37:32;8.93;;;5.88;;
30948;SDS011;17637;51.984;21.208;2024-03-25T10:40:04;7.32;;;5.80;;
30948;SDS011;17637;51.984;21.208;2024-03-25T10:42:35;7.35;;;5.88;;
30948;SDS011;17637;51.984;21.208;2024-03-25T10:45:08;10.05;;;7.03;;
30948;SDS011;17637;51.984;21.208;2024-03-25T10:47:39;8.05;;;6.32;;
30948;SDS011;17637;51.984;21.208;2024-03-25T10:50:10;7.40;;;5.60;;
30948;SDS011;17637;51.984;21.208;2024-03-25T10:52:42;6.63;;;5.30;;
30948;SDS011;17637;51.984;21.208;2024-03-25T10:55:13;5.25;;;4.22;;
30948;SDS011;17637;51.984;21.208;2024-03-25T10:57:44;6.43;;;4.25;;
30948;SDS011;17637;51.984;21.208;2024-03-25T11:00:15;7.38;;;4.20;;
30948;SDS011;17637;51.984;21.208;2024-03-25T11:02:46;7.45;;;4.55;;
30948;SDS011;17637;51.984;21.208;2024-03-25T11:05:16;4.43;;;3.60;;
30948;SDS011;17637;51.984;21.208;2024-03-25T11:07:47;5.63;;;3.50;;
30948;SDS011;17637;51.984;21.208;2024-03-25T11:10:18;5.97;;;3.58;;
30948;SDS011;17637;51.984;21.208;2024-03-25T11:12:49;6.25;;;4.25;;
30948;SDS011;17637;51.984;21.208;2024-03-25T11:15:19;4.22;;;3.50;;
30948;SDS011;17637;51.984;21.208;2024-03-25T11:17:50;4.32;;;3.13;;
30948;SDS011;17637;51.984;21.208;2024-03-25T11:20:21;3.53;;;3.15;;
30948;SDS011;17637;51.984;21.208;2024-03-25T11:22:52;4.63;;;3.35;;
30948;SDS011;17637;51.984;21.208;2024-03-25T11:25:22;4.15;;;3.28;;
30948;SDS011;17637;51.984;21.208;2024-03-25T11:27:53;4.40;;;3.10;;
30948;SDS011;17637;51.984;21.208;2024-03-25T11:30:24;3.83;;;2.63;;
30948;SDS011;17637;51.984;21.208;2024-03-25T11:32:57;4.30;;;3.10;;
30948;SDS011;17637;51.984;21.208;2024-03-25T11:35:28;3.70;;;2.70;;
30948;SDS011;17637;51.984;21.208;2024-03-25T11:37:59;3.33;;;2.88;;
30948;SDS011;17637;51.984;21.208;2024-03-25T11:40:29;3.22;;;2.88;;
30948;SDS011;17637;51.984;21.208;2024-03-25T11:43:00;4.70;;;3.15;;
30948;SDS011;17637;51.984;21.208;2024-03-25T11:45:30;4.82;;;3.20;;
30948;SDS011;17637;51.984;21.208;2024-03-25T11:48:02;5.32;;;3.20;;
30948;SDS011;17637;51.984;21.208;2024-03-25T11:50:34;3.78;;;2.75;;
30948;SDS011;17637;51.984;21.208;2024-03-25T11:53:05;5.28;;;3.65;;
30948;SDS011;17637;51.984;21.208;2024-03-25T11:55:35;4.20;;;3.38;;
30948;SDS011;17637;51.984;21.208;2024-03-25T11:58:06;4.15;;;2.30;;
30948;SDS011;17637;51.984;21.208;2024-03-25T12:00:47;3.85;;;3.10;;
30948;SDS011;17637;51.984;21.208;2024-03-25T12:03:20;3.20;;;2.55;;
30948;SDS011;17637;51.984;21.208;2024-03-25T12:05:50;4.40;;;2.30;;
30948;SDS011;17637;51.984;21.208;2024-03-25T12:08:22;4.00;;;2.70;;
30948;SDS011;17637;51.984;21.208;2024-03-25T12:10:56;3.92;;;2.60;;
30948;SDS011;17637;51.984;21.208;2024-03-25T12:13:45;2.90;;;2.10;;
30948;SDS011;17637;51.984;21.208;2024-03-25T12:16:17;10.48;;;3.35;;
30948;SDS011;17637;51.984;21.208;2024-03-25T12:18:48;4.63;;;2.70;;
30948;SDS011;17637;51.984;21.208;2024-03-25T12:21:19;4.90;;;2.90;;
30948;SDS011;17637;51.984;21.208;2024-03-25T12:23:49;4.15;;;2.80;;
30948;SDS011;17637;51.984;21.208;2024-03-25T12:26:20;7.28;;;3.38;;
30948;SDS011;17637;51.984;21.208;2024-03-25T12:28:51;4.03;;;3.08;;
30948;SDS011;17637;51.984;21.208;2024-03-25T12:31:23;4.63;;;2.97;;
30948;SDS011;17637;51.984;21.208;2024-03-25T12:33:53;3.97;;;2.40;;
30948;SDS011;17637;51.984;21.208;2024-03-25T12:36:24;4.07;;;2.47;;
30948;SDS011;17637;51.984;21.208;2024-03-25T12:38:57;5.00;;;3.15;;
30948;SDS011;17637;51.984;21.208;2024-03-25T12:41:27;11.48;;;5.78;;
30948;SDS011;17637;51.984;21.208;2024-03-25T12:43:58;3.88;;;2.55;;
30948;SDS011;17637;51.984;21.208;2024-03-25T12:46:29;3.95;;;2.80;;
30948;SDS011;17637;51.984;21.208;2024-03-25T12:48:59;5.15;;;2.55;;
30948;SDS011;17637;51.984;21.208;2024-03-25T12:51:30;3.85;;;2.55;;
30948;SDS011;17637;51.984;21.208;2024-03-25T12:54:01;3.35;;;2.47;;
30948;SDS011;17637;51.984;21.208;2024-03-25T12:56:31;3.80;;;2.78;;
30948;SDS011;17637;51.984;21.208;2024-03-25T12:59:02;3.85;;;2.88;;
30948;SDS011;17637;51.984;21.208;2024-03-25T13:01:32;5.32;;;3.22;;
30948;SDS011;17637;51.984;21.208;2024-03-25T13:04:03;7.32;;;3.45;;
30948;SDS011;17637;51.984;21.208;2024-03-25T13:06:33;3.70;;;2.70;;
30948;SDS011;17637;51.984;21.208;2024-03-25T13:09:04;4.30;;;2.95;;
30948;SDS011;17637;51.984;21.208;2024-03-25T13:11:35;4.10;;;2.78;;
30948;SDS011;17637;51.984;21.208;2024-03-25T13:14:05;3.42;;;2.65;;
30948;SDS011;17637;51.984;21.208;2024-03-25T13:16:37;3.13;;;2.58;;
30948;SDS011;17637;51.984;21.208;2024-03-25T13:19:08;6.05;;;2.63;;
30948;SDS011;17637;51.984;21.208;2024-03-25T13:21:39;3.08;;;2.53;;
30948;SDS011;17637;51.984;21.208;2024-03-25T13:24:09;3.35;;;2.53;;
30948;SDS011;17637;51.984;21.208;2024-03-25T13:26:40;3.38;;;2.30;;
30948;SDS011;17637;51.984;21.208;2024-03-25T13:29:10;3.97;;;2.72;;
30948;SDS011;17637;51.984;21.208;2024-03-25T13:31:41;3.55;;;2.60;;
30948;SDS011;17637;51.984;21.208;2024-03-25T13:34:11;4.63;;;3.20;;
30948;SDS011;17637;51.984;21.208;2024-03-25T13:36:42;4.85;;;3.10;;
30948;SDS011;17637;51.984;21.208;2024-03-25T13:39:12;4.05;;;3.03;;
30948;SDS011;17637;51.984;21.208;2024-03-25T13:41:43;3.80;;;3.20;;
30948;SDS011;17637;51.984;21.208;2024-03-25T13:44:15;4.00;;;3.50;;
30948;SDS011;17637;51.984;21.208;2024-03-25T13:46:45;3.78;;;3.42;;
30948;SDS011;17637;51.984;21.208;2024-03-25T13:49:16;4.30;;;3.08;;
30948;SDS011;17637;51.984;21.208;2024-03-25T13:51:49;5.93;;;3.80;;
30948;SDS011;17637;51.984;21.208;2024-03-25T13:54:20;4.15;;;3.38;;
30948;SDS011;17637;51.984;21.208;2024-03-25T13:56:51;3.45;;;3.05;;
30948;SDS011;17637;51.984;21.208;2024-03-25T13:59:21;3.80;;;3.13;;
30948;SDS011;17637;51.984;21.208;2024-03-25T14:01:52;3.70;;;2.90;;
30948;SDS011;17637;51.984;21.208;2024-03-25T14:04:24;3.75;;;3.17;;
30948;SDS011;17637;51.984;21.208;2024-03-25T14:06:55;3.83;;;3.40;;
30948;SDS011;17637;51.984;21.208;2024-03-25T14:09:25;3.80;;;3.00;;
30948;SDS011;17637;51.984;21.208;2024-03-25T14:11:56;3.67;;;2.80;;
30948;SDS011;17637;51.984;21.208;2024-03-25T14:14:26;3.55;;;3.03;;
30948;SDS011;17637;51.984;21.208;2024-03-25T14:16:57;4.35;;;3.80;;
30948;SDS011;17637;51.984;21.208;2024-03-25T14:19:27;4.80;;;4.30;;
30948;SDS011;17637;51.984;21.208;2024-03-25T14:21:58;5.10;;;4.20;;
30948;SDS011;17637;51.984;21.208;2024-03-25T14:24:28;5.50;;;4.90;;
30948;SDS011;17637;51.984;21.208;2024-03-25T14:26:59;5.63;;;5.03;;
30948;SDS011;17637;51.984;21.208;2024-03-25T14:29:29;7.55;;;5.45;;
30948;SDS011;17637;51.984;21.208;2024-03-25T14:32:00;5.28;;;4.78;;
30948;SDS011;17637;51.984;21.208;2024-03-25T14:34:30;5.68;;;5.07;;
30948;SDS011;17637;51.984;21.208;2024-03-25T14:37:01;5.80;;;5.03;;
30948;SDS011;17637;51.984;21.208;2024-03-25T14:39:33;5.88;;;4.90;;